Aérodrome :
LOGIN :

S'inscrire | Disclaimer

   EN    FR    IT 

 










Légende :    VFR   VFR Marginal   IFR   IFR Intensif   IFR Très Intensif
Visi : 
Plafond : 
>= 8 km
>= 3000ft
5 à 8 km
1000 à 3000 ft
1500m à 5 km
500 à 1000 ft
800 à 1500m
200 à 500 ft
< 800m
< 200 ft
Symboles :   Orages  Brouillard  Fortes neiges  Fortes précipitations  Vent > 20 kt
SIGMETs :   Divers  Orages  Givrage  Turbulence  Onde Orograph.  Cendres Volcan.







- Altitude de l'aérodrome : 495 ft
- Code IATA : BUD


LHBP - Budapest Ferihegy

DERNIER METAR :
  • 221000Z 12010KT 070V150 CAVOK 19/05 Q1020 NOSIG

METARs EXPIRÉS :
  • 220930Z 14009KT 090V160 CAVOK 19/05 Q1021 NOSIG
  • 220900Z 14007KT 110V170 CAVOK 18/04 Q1021 NOSIG
  • 220830Z 12006KT 090V170 CAVOK 17/05 Q1022 NOSIG
  • 220800Z 13004KT 080V160 CAVOK 16/06 Q1022 NOSIG
  • 220730Z 14004KT 110V170 CAVOK 15/05 Q1022 NOSIG

TAF TAF LHBP
Valide du 22 à 06h jusqu'au 23 à 06h UTC


220515Z 2206/2306 VRB03KT CAVOK
BECMG 2208/2211 14008KT
BECMG 2218/2220 10006KT
TEMPO 2300/2306 07010G20KT 6000 SHRA SCT040 BKN060
Pas de NOTAMs connus pour ce terrain.



MET'MAP, la Météo Aéronautique d'un coup d'oeil ! - Copyright ORBIFLY Décembre 2007 - Disclaimer

ORBIFLY MET'MAP TEAM :

Programmation & Développement : Alexandra Zaïnal
Conception & Développement : Baudouin d'Aumeries
Co-Programmation & Développement : Marc-Olivier Méhu
Soutien technique & logistique : Manuel Goepfert

Contact : metmap@orbifly.com




SOURCES & CREDITS :

   NOAA